Lafontaine, Canada
Current Conditions -  °F | °C
As of 8:00 AM on Monday 20 Oct 2014 (Local Time) from CYMX Reporting Station
Broken Clouds Broken Clouds  
Wind Chill: 32°   Ceiling: 24000
Heat Index: 32°   Visibility: 45mi
Dew Point: 28°   Wind: 2mph
Humidity: 87%   Direction: 230°SW
Pressure: 29.99"   Gusts: NA
Location:  45.8°N, 74.02°W
Report Text: CYMX 201200Z 23002KT 45SM FEW020 SCT120 BKN240 00/M02 A2999 RMK SC1AC3CI3 SLP158
Loading
Personal Weather Stations






























Interactive Weather Map
Tropical Storm Tracking
New forecast layout! Learn more

10-Day Weather Forecast

Advertisements
Track Severe Weather on mobile